Time;durP1;ratioP1;P1;durP2;ratioP2;P2;SDS_P1;SDS_P2;PMS_P1;PMS_P2;Temp;Humidity;BMP_temperature;BMP_pressure;BME280_temperature;BME280_humidity;BME280_pressure;Samples;Min_cycle;Max_cycle;Signal;HPM_P1;HPM_P2
2021/05/24 00:01:30;;;;;;;6.55;2.65;;;18.00;64.80;;;;;;5089682;28;20027;-72
2021/05/24 00:03:56;;;;;;;5.97;2.80;;;18.00;64.70;;;;;;5090706;28;20073;-73
2021/05/24 00:06:22;;;;;;;4.60;2.85;;;18.00;64.70;;;;;;5084070;28;20048;-73
2021/05/24 00:08:48;;;;;;;6.03;2.88;;;18.10;64.70;;;;;;5070339;28;20390;-72
2021/05/24 00:11:17;;;;;;;7.47;2.95;;;18.10;64.60;;;;;;5071845;28;20031;-73
2021/05/24 00:13:53;;;;;;;4.30;2.80;;;18.10;64.60;;;;;;5092039;28;20537;-72
2021/05/24 00:16:19;;;;;;;4.45;2.40;;;18.10;64.70;;;;;;5086829;28;20474;-72
2021/05/24 00:18:50;;;;;;;5.25;2.58;;;18.20;64.70;;;;;;5075603;28;20070;-72
2021/05/24 00:21:17;;;;;;;6.90;3.25;;;18.20;64.80;;;;;;5075904;28;20020;-72
2021/05/24 00:23:42;;;;;;;7.65;2.80;;;18.20;64.90;;;;;;5083054;28;20037;-72
2021/05/24 00:26:08;;;;;;;5.75;2.90;;;18.20;65.00;;;;;;5087937;28;20051;-72
2021/05/24 00:28:34;;;;;;;7.65;3.00;;;18.20;65.00;;;;;;5091720;28;20061;-72
2021/05/24 00:31:00;;;;;;;6.30;2.65;;;18.20;65.00;;;;;;5087713;28;20459;-72
2021/05/24 00:33:28;;;;;;;4.45;2.65;;;18.20;65.00;;;;;;5085030;28;20485;-71
2021/05/24 00:35:56;;;;;;;5.75;2.90;;;18.20;64.90;;;;;;5084999;28;20033;-71
2021/05/24 00:38:22;;;;;;;4.53;2.38;;;18.30;65.00;;;;;;5074658;28;20179;-72
2021/05/24 00:40:47;;;;;;;4.97;2.85;;;18.30;65.10;;;;;;5086989;28;20104;-72
2021/05/24 00:43:13;;;;;;;5.97;2.60;;;18.30;65.10;;;;;;5079510;28;20052;-72
2021/05/24 00:45:39;;;;;;;7.18;2.67;;;18.30;65.00;;;;;;5080806;28;20426;-72
2021/05/24 00:48:06;;;;;;;8.73;3.97;;;18.30;65.00;;;;;;5077023;28;20028;-71
2021/05/24 00:50:40;;;;;;;9.27;4.20;;;18.20;64.20;;;;;;5078073;28;20032;-74
2021/05/24 00:53:06;;;;;;;7.55;4.10;;;18.20;63.60;;;;;;5079706;28;20028;-74
2021/05/24 00:55:33;;;;;;;9.15;3.92;;;18.10;63.20;;;;;;5075802;28;20509;-72
2021/05/24 00:57:59;;;;;;;8.82;4.65;;;18.10;62.80;;;;;;5091309;28;20024;-74
2021/05/24 01:00:37;;;;;;;6.50;3.17;;;18.00;62.30;;;;;;5086880;28;20016;-76
2021/05/24 01:03:06;;;;;;;5.82;3.45;;;18.00;62.00;;;;;;5082242;28;20047;-72
2021/05/24 01:05:32;;;;;;;6.95;3.80;;;17.90;62.20;;;;;;5085301;28;20041;-72
2021/05/24 01:07:58;;;;;;;8.85;3.10;;;17.90;62.10;;;;;;5092322;28;20389;-73
2021/05/24 01:10:25;;;;;;;6.90;3.53;;;17.90;62.40;;;;;;5091577;28;20024;-76
2021/05/24 01:12:51;;;;;;;6.50;3.13;;;17.80;62.90;;;;;;5085864;28;20028;-73
2021/05/24 01:15:17;;;;;;;7.72;3.35;;;17.80;63.10;;;;;;5084487;28;20029;-72
2021/05/24 01:17:45;;;;;;;8.60;3.70;;;17.70;63.80;;;;;;5073179;28;20101;-72
2021/05/24 01:20:12;;;;;;;6.75;3.58;;;17.60;65.00;;;;;;5077264;28;20046;-72
2021/05/24 01:22:40;;;;;;;6.07;3.15;;;17.50;65.60;;;;;;5088855;28;20082;-73
2021/05/24 01:25:08;;;;;;;6.97;3.17;;;17.40;66.30;;;;;;5074576;28;20082;-72
2021/05/24 01:27:33;;;;;;;6.55;3.55;;;17.30;67.30;;;;;;5074287;28;20028;-74
2021/05/24 01:30:00;;;;;;;6.10;3.60;;;17.10;67.90;;;;;;5086291;28;20485;-72
2021/05/24 01:32:26;;;;;;;6.55;3.60;;;17.00;68.70;;;;;;5082356;28;20028;-77
2021/05/24 01:34:54;;;;;;;7.05;3.67;;;16.90;69.70;;;;;;5079756;28;20070;-73
2021/05/24 01:37:20;;;;;;;5.82;3.95;;;16.80;70.80;;;;;;5073435;28;20036;-73
2021/05/24 01:39:45;;;;;;;5.28;3.17;;;16.70;71.40;;;;;;5074471;28;20412;-73
2021/05/24 01:42:11;;;;;;;7.28;3.30;;;16.70;71.90;;;;;;5082353;28;20025;-72
2021/05/24 01:44:39;;;;;;;6.43;3.70;;;16.60;72.60;;;;;;5092013;28;21687;-72
2021/05/24 01:47:06;;;;;;;5.85;3.90;;;16.50;73.40;;;;;;5074149;28;20479;-73
2021/05/24 01:49:33;;;;;;;7.22;4.10;;;16.40;74.00;;;;;;5073773;28;20102;-73
2021/05/24 01:51:59;;;;;;;8.25;3.92;;;16.40;75.00;;;;;;5089846;28;20029;-73
2021/05/24 01:54:25;;;;;;;9.93;4.47;;;16.30;75.50;;;;;;5084843;28;20033;-77
2021/05/24 01:56:50;;;;;;;6.57;3.95;;;16.20;76.00;;;;;;5087565;28;20447;-73
2021/05/24 01:59:17;;;;;;;8.15;4.65;;;16.20;76.90;;;;;;5074178;28;20056;-72
2021/05/24 02:01:43;;;;;;;8.05;4.57;;;16.10;77.40;;;;;;5077738;28;20366;-72
2021/05/24 02:04:09;;;;;;;7.20;4.38;;;16.00;78.40;;;;;;5074095;28;20059;-73
2021/05/24 02:06:34;;;;;;;7.78;4.20;;;16.00;79.10;;;;;;5081839;28;20063;-72
2021/05/24 02:09:01;;;;;;;8.93;4.47;;;15.90;79.70;;;;;;5076748;28;20024;-73
2021/05/24 02:11:28;;;;;;;9.05;5.13;;;15.80;80.30;;;;;;5090745;28;20028;-78
2021/05/24 02:13:54;;;;;;;7.38;4.72;;;15.80;80.90;;;;;;5092174;28;20085;-76
2021/05/24 02:16:37;;;;;;;7.97;4.30;;;15.80;81.70;;;;;;5084458;28;20024;-71
2021/05/24 02:19:03;;;;;;;6.60;4.28;;;15.80;82.10;;;;;;5079960;28;20470;-71
2021/05/24 02:21:29;;;;;;;10.00;4.47;;;15.80;82.20;;;;;;5085685;28;20020;-71
2021/05/24 02:23:54;;;;;;;7.07;4.32;;;15.80;82.80;;;;;;5085819;28;20036;-73
2021/05/24 02:26:20;;;;;;;7.57;4.50;;;15.80;83.50;;;;;;5080229;28;20099;-70
2021/05/24 02:28:46;;;;;;;6.80;4.30;;;15.80;83.80;;;;;;5072860;28;20025;-70
2021/05/24 02:31:11;;;;;;;7.38;4.90;;;15.80;84.20;;;;;;5082175;28;20031;-72
2021/05/24 02:33:37;;;;;;;7.47;4.80;;;15.80;84.60;;;;;;5077541;28;20028;-72
2021/05/24 02:36:03;;;;;;;7.13;4.90;;;15.70;84.80;;;;;;5090040;28;20055;-72
2021/05/24 02:38:29;;;;;;;8.45;5.20;;;15.70;85.20;;;;;;5085870;28;20115;-71
2021/05/24 02:40:54;;;;;;;7.45;4.47;;;15.70;85.50;;;;;;5092244;28;20177;-72
2021/05/24 02:43:20;;;;;;;8.80;5.68;;;15.60;86.50;;;;;;5088396;28;20468;-82
2021/05/24 02:45:47;;;;;;;7.93;5.15;;;15.60;87.40;;;;;;5073125;28;20479;-81
2021/05/24 02:48:14;;;;;;;9.82;5.47;;;15.50;87.90;;;;;;5084600;28;20032;-78
2021/05/24 02:50:40;;;;;;;10.77;6.68;;;15.40;88.50;;;;;;5080243;28;20530;-78
2021/05/24 02:53:05;;;;;;;8.93;5.93;;;15.40;89.20;;;;;;5093663;28;20077;-79
2021/05/24 02:55:31;;;;;;;8.60;6.32;;;15.30;89.90;;;;;;5093895;28;20050;-80
2021/05/24 02:57:57;;;;;;;9.38;5.70;;;15.30;90.20;;;;;;5081717;28;20016;-83
2021/05/24 03:00:26;;;;;;;9.85;5.60;;;15.20;90.60;;;;;;5087985;28;20028;-83
2021/05/24 03:02:51;;;;;;;8.52;4.65;;;15.30;90.80;;;;;;5088021;28;20034;-78
2021/05/24 03:05:20;;;;;;;8.52;5.10;;;15.20;90.90;;;;;;5093725;28;20103;-78
2021/05/24 03:07:46;;;;;;;7.70;4.97;;;15.20;91.20;;;;;;5091669;28;20069;-67
2021/05/24 03:10:13;;;;;;;11.65;5.80;;;15.10;91.40;;;;;;5089013;28;20467;-69
2021/05/24 03:12:39;;;;;;;10.88;6.60;;;15.10;91.60;;;;;;5091075;28;20020;-77
2021/05/24 03:15:06;;;;;;;10.82;6.78;;;15.10;91.70;;;;;;5092555;28;20381;-72
2021/05/24 03:17:31;;;;;;;8.80;6.55;;;15.10;92.20;;;;;;5087434;28;20090;-72
2021/05/24 03:19:57;;;;;;;9.73;6.13;;;15.10;92.40;;;;;;5089738;28;20494;-72
2021/05/24 03:22:23;;;;;;;8.93;5.38;;;15.00;92.50;;;;;;5090887;28;20063;-76
2021/05/24 03:24:49;;;;;;;8.25;5.85;;;15.00;92.70;;;;;;5089291;28;20030;-72
2021/05/24 03:27:14;;;;;;;8.48;5.45;;;15.00;93.00;;;;;;5087985;28;20054;-68
2021/05/24 03:29:40;;;;;;;6.72;4.43;;;15.00;93.00;;;;;;5087737;28;20029;-68
2021/05/24 03:32:07;;;;;;;6.72;4.50;;;15.00;93.00;;;;;;5091307;28;20405;-71
2021/05/24 03:34:35;;;;;;;8.63;5.15;;;15.00;92.90;;;;;;5087502;28;20024;-70
2021/05/24 03:37:01;;;;;;;8.30;4.80;;;15.00;93.10;;;;;;5088978;28;20038;-70
2021/05/24 03:39:27;;;;;;;9.38;4.97;;;15.00;93.10;;;;;;5088912;28;20111;-69
2021/05/24 03:41:52;;;;;;;6.75;4.68;;;15.00;93.10;;;;;;5091099;28;20024;-68
2021/05/24 03:44:19;;;;;;;8.93;4.93;;;15.00;92.90;;;;;;5088707;28;20020;-70
2021/05/24 03:46:44;;;;;;;6.30;4.70;;;15.00;92.90;;;;;;5093221;28;20032;-68
2021/05/24 03:49:10;;;;;;;7.63;5.47;;;15.00;92.80;;;;;;5096226;28;20544;-68
2021/05/24 03:51:36;;;;;;;7.68;5.35;;;15.00;92.70;;;;;;5083473;28;20413;-68
2021/05/24 03:54:02;;;;;;;9.45;6.95;;;14.90;92.60;;;;;;5092670;28;20041;-69
2021/05/24 03:56:27;;;;;;;9.85;6.18;;;14.90;92.80;;;;;;5093297;28;20035;-68
2021/05/24 03:58:53;;;;;;;8.20;5.57;;;14.90;93.00;;;;;;5093834;28;20052;-73
2021/05/24 04:01:18;;;;;;;8.10;5.80;;;14.80;93.00;;;;;;5094415;28;20035;-72
2021/05/24 04:03:44;;;;;;;10.10;5.63;;;14.80;93.10;;;;;;5090537;28;20028;-72
2021/05/24 04:06:14;;;;;;;9.05;5.97;;;14.80;93.10;;;;;;5096076;28;20042;-72
2021/05/24 04:08:44;;;;;;;7.32;5.65;;;14.80;93.00;;;;;;5092883;28;20028;-71
2021/05/24 04:11:11;;;;;;;8.60;6.30;;;14.80;93.20;;;;;;5090080;28;20028;-72
2021/05/24 04:13:37;;;;;;;8.32;4.95;;;14.80;93.50;;;;;;5084839;28;20846;-71
2021/05/24 04:16:03;;;;;;;7.25;4.95;;;14.70;93.40;;;;;;5077922;28;20028;-71
2021/05/24 04:18:33;;;;;;;9.50;5.40;;;14.70;93.60;;;;;;5075408;28;20021;-79
2021/05/24 04:20:59;;;;;;;7.78;5.57;;;14.70;93.70;;;;;;5077732;28;20021;-73
2021/05/24 04:23:25;;;;;;;7.40;5.95;;;14.70;93.90;;;;;;5087402;28;20024;-74
2021/05/24 04:25:50;;;;;;;9.68;6.03;;;14.80;94.10;;;;;;5077531;28;20033;-74
2021/05/24 04:28:16;;;;;;;9.93;6.68;;;14.80;94.40;;;;;;5089616;28;20028;-73
2021/05/24 04:30:43;;;;;;;10.57;6.53;;;14.80;94.60;;;;;;5086200;28;20025;-74
2021/05/24 04:33:09;;;;;;;9.45;6.13;;;14.90;94.70;;;;;;5081767;28;20062;-74
2021/05/24 04:35:35;;;;;;;9.05;6.15;;;14.90;94.80;;;;;;5082351;28;20027;-75
2021/05/24 04:38:05;;;;;;;9.70;5.68;;;15.00;95.20;;;;;;5087466;28;20082;-78
2021/05/24 04:41:01;;;;;;;8.15;5.38;;;15.10;94.60;;;;;;5084414;28;20424;-75
2021/05/24 04:43:29;;;;;;;8.25;5.32;;;15.10;94.20;;;;;;5089864;28;20051;-74
2021/05/24 04:45:58;;;;;;;10.30;5.90;;;15.20;94.00;;;;;;5091650;28;20067;-74
2021/05/24 04:48:24;;;;;;;8.07;5.60;;;15.20;94.00;;;;;;5081904;28;20025;-73
2021/05/24 04:50:50;;;;;;;8.30;5.55;;;15.20;94.10;;;;;;5087713;28;20032;-77
2021/05/24 04:53:16;;;;;;;10.90;5.50;;;15.20;94.10;;;;;;5080698;28;20046;-77
2021/05/24 04:55:42;;;;;;;10.32;6.35;;;15.30;94.00;;;;;;5090521;28;20055;-74
2021/05/24 04:58:11;;;;;;;10.52;6.90;;;15.30;94.00;;;;;;5084080;28;20385;-75
2021/05/24 05:00:37;;;;;;;8.80;6.20;;;15.30;93.90;;;;;;5092790;28;20089;-74
2021/05/24 05:03:20;;;;;;;8.88;5.43;;;15.40;93.90;;;;;;5089783;28;20181;-74
2021/05/24 05:05:46;;;;;;;8.07;5.60;;;15.40;93.70;;;;;;5089615;28;20036;-74
2021/05/24 05:08:12;;;;;;;13.45;8.40;;;15.40;93.60;;;;;;5083027;28;20035;-74
2021/05/24 05:10:37;;;;;;;11.63;8.95;;;15.40;93.40;;;;;;5087229;28;20524;-74
2021/05/24 05:13:03;;;;;;;12.43;9.85;;;15.50;93.60;;;;;;5085496;28;20028;-75
2021/05/24 05:15:32;;;;;;;11.35;7.90;;;15.50;93.40;;;;;;5079718;28;20462;-75
2021/05/24 05:17:58;;;;;;;7.57;5.03;;;15.60;93.50;;;;;;5086502;28;20361;-74
2021/05/24 05:20:24;;;;;;;7.07;4.60;;;15.80;93.80;;;;;;5076427;28;20025;-74
2021/05/24 05:22:49;;;;;;;12.60;5.40;;;16.20;93.70;;;;;;5077272;28;20091;-74
2021/05/24 05:25:16;;;;;;;8.32;4.18;;;16.30;92.30;;;;;;5093602;28;20366;-72
2021/05/24 05:27:42;;;;;;;6.47;4.50;;;16.40;91.50;;;;;;5087689;28;20016;-74
2021/05/24 05:30:08;;;;;;;7.32;6.03;;;16.40;90.90;;;;;;5086181;28;20073;-72
2021/05/24 05:32:34;;;;;;;7.80;5.38;;;16.30;90.50;;;;;;5109842;28;20020;-72
2021/05/24 05:34:59;;;;;;;8.48;5.15;;;16.20;90.40;;;;;;5074526;28;20503;-73
2021/05/24 05:37:25;;;;;;;9.73;5.20;;;16.20;90.60;;;;;;5082151;28;20363;-77
2021/05/24 05:39:54;;;;;;;7.03;4.50;;;16.10;90.60;;;;;;5090960;28;20103;-77
2021/05/24 05:42:21;;;;;;;8.60;4.60;;;16.10;90.50;;;;;;5086835;28;20370;-77
2021/05/24 05:44:48;;;;;;;6.75;4.55;;;16.00;90.50;;;;;;5090623;28;20024;-77
2021/05/24 05:47:14;;;;;;;9.18;5.40;;;16.00;90.40;;;;;;5079256;28;20111;-77
2021/05/24 05:49:40;;;;;;;7.18;5.30;;;15.90;90.40;;;;;;5088527;28;20069;-77
2021/05/24 05:52:06;;;;;;;12.43;8.80;;;15.80;90.30;;;;;;5086657;28;20095;-77
2021/05/24 05:54:31;;;;;;;9.68;5.25;;;15.80;90.40;;;;;;5082752;28;20024;-76
2021/05/24 05:56:58;;;;;;;9.25;5.80;;;15.70;90.20;;;;;;5079196;28;20410;-77
2021/05/24 05:59:23;;;;;;;12.60;8.15;;;15.70;90.20;;;;;;5088541;28;20497;-77
2021/05/24 06:01:49;;;;;;;15.25;9.77;;;15.60;90.00;;;;;;5085686;28;20086;-77
2021/05/24 06:04:15;;;;;;;12.35;7.85;;;15.50;90.10;;;;;;5079042;28;20025;-76
2021/05/24 06:06:41;;;;;;;10.52;7.28;;;15.40;90.30;;;;;;5081939;28;20041;-77
2021/05/24 06:09:07;;;;;;;12.85;9.10;;;15.30;90.50;;;;;;5087681;28;20028;-77
2021/05/24 06:11:33;;;;;;;12.95;7.00;;;15.30;90.80;;;;;;5083394;28;20118;-77
2021/05/24 06:13:59;;;;;;;17.20;11.00;;;15.20;91.10;;;;;;5079332;28;20056;-77
2021/05/24 06:16:24;;;;;;;22.75;18.27;;;15.20;91.30;;;;;;5073900;28;20033;-78
2021/05/24 06:18:50;;;;;;;41.50;36.97;;;15.20;91.60;;;;;;5072006;28;20020;-78
2021/05/24 06:21:16;;;;;;;36.30;31.20;;;15.20;91.70;;;;;;5075715;28;20082;-78
2021/05/24 06:23:45;;;;;;;29.23;25.50;;;15.10;91.70;;;;;;5085414;28;20471;-77
2021/05/24 06:26:12;;;;;;;27.17;23.77;;;15.10;91.90;;;;;;5077225;28;20062;-76
2021/05/24 06:28:38;;;;;;;22.77;19.90;;;15.10;92.30;;;;;;5073234;28;20013;-76
2021/05/24 06:31:04;;;;;;;22.65;20.20;;;15.10;92.80;;;;;;5073485;28;20463;-76
2021/05/24 06:33:29;;;;;;;19.95;17.67;;;15.20;92.90;;;;;;5073232;28;20021;-76
2021/05/24 06:35:55;;;;;;;21.10;18.88;;;15.20;92.90;;;;;;5073265;28;20021;-76
2021/05/24 06:38:21;;;;;;;14.90;12.25;;;15.20;93.00;;;;;;5073017;28;20039;-76
2021/05/24 06:40:46;;;;;;;14.15;12.63;;;15.20;92.70;;;;;;5072698;28;20356;-76
2021/05/24 06:43:12;;;;;;;15.05;11.70;;;15.30;92.80;;;;;;5072958;28;20024;-77
2021/05/24 06:45:38;;;;;;;13.38;10.68;;;15.30;92.90;;;;;;5085598;28;20122;-77
2021/05/24 06:48:04;;;;;;;10.90;8.98;;;15.40;92.90;;;;;;5073405;28;20027;-77
2021/05/24 06:50:30;;;;;;;7.63;6.60;;;15.40;92.70;;;;;;5071782;28;20024;-78
2021/05/24 06:52:55;;;;;;;8.35;6.30;;;15.40;92.30;;;;;;5073292;28;20104;-77
2021/05/24 06:55:21;;;;;;;8.88;6.55;;;15.30;92.20;;;;;;5075274;28;20024;-77
2021/05/24 06:57:47;;;;;;;7.30;5.47;;;15.30;92.40;;;;;;5072579;28;20050;-77
2021/05/24 07:00:13;;;;;;;8.73;5.90;;;15.30;92.70;;;;;;5072797;28;20425;-77
2021/05/24 07:02:40;;;;;;;13.02;7.10;;;15.30;93.10;;;;;;5072518;28;20031;-78
2021/05/24 07:05:06;;;;;;;13.38;6.78;;;15.30;93.60;;;;;;5072877;28;20029;-77
2021/05/24 07:07:32;;;;;;;10.82;6.90;;;15.30;93.80;;;;;;5072375;28;20123;-77
2021/05/24 07:09:58;;;;;;;14.20;8.00;;;15.30;93.60;;;;;;5072485;28;20111;-77
2021/05/24 07:12:23;;;;;;;10.63;6.40;;;15.30;93.80;;;;;;5072641;28;20025;-77
2021/05/24 07:14:53;;;;;;;8.93;6.65;;;15.30;93.50;;;;;;5082585;28;20394;-76
2021/05/24 07:17:19;;;;;;;8.80;6.22;;;15.20;93.50;;;;;;5072778;28;20123;-76
2021/05/24 07:19:44;;;;;;;9.27;5.45;;;15.20;93.60;;;;;;5074031;28;20116;-76
2021/05/24 07:22:10;;;;;;;9.43;6.05;;;15.10;93.70;;;;;;5072343;28;20024;-75
2021/05/24 07:24:36;;;;;;;8.65;5.57;;;15.10;94.20;;;;;;5072008;28;20526;-75
2021/05/24 07:27:02;;;;;;;9.27;6.55;;;15.10;94.50;;;;;;5072384;28;20029;-75
2021/05/24 07:29:29;;;;;;;9.65;6.50;;;15.10;94.50;;;;;;5072706;28;20032;-75
2021/05/24 07:31:55;;;;;;;9.10;6.88;;;15.00;94.80;;;;;;5071296;28;20024;-75
2021/05/24 07:34:21;;;;;;;9.63;6.05;;;15.00;95.10;;;;;;5079122;28;20414;-75
2021/05/24 07:36:46;;;;;;;9.45;6.47;;;15.00;95.10;;;;;;5072953;28;20071;-75
2021/05/24 07:39:12;;;;;;;8.65;6.78;;;14.90;95.40;;;;;;5070884;28;20036;-75
2021/05/24 07:41:38;;;;;;;12.48;7.32;;;14.90;95.60;;;;;;5073937;28;20025;-75
2021/05/24 07:44:05;;;;;;;9.80;6.15;;;14.90;95.90;;;;;;5084736;28;20055;-75
2021/05/24 07:46:31;;;;;;;12.57;6.68;;;14.90;95.90;;;;;;5077280;28;20037;-76
2021/05/24 07:48:56;;;;;;;10.15;5.90;;;14.90;96.00;;;;;;5070882;28;20016;-75
2021/05/24 07:51:22;;;;;;;8.65;6.38;;;15.00;95.90;;;;;;5072617;28;20029;-75
2021/05/24 07:53:48;;;;;;;9.07;6.50;;;14.90;96.10;;;;;;5071976;28;20490;-76
2021/05/24 07:56:14;;;;;;;10.43;6.70;;;14.90;96.20;;;;;;5070931;28;20107;-76
2021/05/24 07:58:39;;;;;;;11.25;6.55;;;15.00;96.30;;;;;;5071736;28;20490;-76
2021/05/24 08:01:05;;;;;;;9.85;7.68;;;15.00;96.30;;;;;;5070657;28;20025;-75
2021/05/24 08:03:31;;;;;;;23.08;18.67;;;15.00;96.40;;;;;;5070939;28;20382;-75
2021/05/24 08:05:56;;;;;;;45.33;40.45;;;15.00;96.50;;;;;;5071403;28;20070;-75
2021/05/24 08:08:22;;;;;;;42.85;38.22;;;15.00;96.70;;;;;;5072401;28;20485;-75
2021/05/24 08:10:48;;;;;;;20.08;17.35;;;14.90;96.50;;;;;;5071490;28;20096;-76
2021/05/24 08:13:13;;;;;;;13.80;11.25;;;14.90;96.50;;;;;;5072077;28;20027;-75
2021/05/24 08:15:39;;;;;;;8.20;6.60;;;14.90;96.50;;;;;;5071579;28;20040;-76
2021/05/24 08:18:09;;;;;;;8.98;6.97;;;14.90;96.50;;;;;;5071844;28;20475;-75
2021/05/24 08:20:36;;;;;;;9.85;6.30;;;14.90;96.60;;;;;;5080217;28;20020;-75
2021/05/24 08:23:03;;;;;;;11.32;6.93;;;14.90;96.60;;;;;;5087535;28;20025;-75
2021/05/24 08:25:29;;;;;;;9.65;7.18;;;14.90;96.80;;;;;;5071883;28;20459;-75
2021/05/24 08:27:55;;;;;;;11.38;7.40;;;14.90;97.00;;;;;;5069927;28;20028;-75
2021/05/24 08:30:21;;;;;;;9.65;7.38;;;15.00;97.10;;;;;;5070612;28;20059;-75
2021/05/24 08:32:47;;;;;;;10.40;7.55;;;14.90;97.10;;;;;;5073241;28;20040;-76
2021/05/24 08:35:13;;;;;;;10.07;7.18;;;14.90;97.10;;;;;;5075774;28;20052;-75
2021/05/24 08:37:39;;;;;;;9.63;6.80;;;14.90;97.20;;;;;;5075763;28;20063;-75
2021/05/24 08:40:06;;;;;;;9.20;7.13;;;14.90;97.10;;;;;;5075114;28;20413;-75
2021/05/24 08:42:41;;;;;;;9.40;6.85;;;14.80;97.00;;;;;;5074353;28;20029;-76
2021/05/24 08:45:07;;;;;;;8.90;6.72;;;14.70;97.00;;;;;;5075395;28;20056;-75
2021/05/24 08:47:34;;;;;;;10.80;7.50;;;14.70;97.00;;;;;;5075301;28;20119;-74
2021/05/24 08:50:00;;;;;;;11.30;7.75;;;14.70;97.10;;;;;;5075262;28;20025;-76
2021/05/24 08:52:29;;;;;;;11.50;8.00;;;14.70;97.40;;;;;;5075176;28;20025;-76
2021/05/24 08:54:54;;;;;;;11.70;7.93;;;14.70;97.60;;;;;;5073853;28;20036;-75
2021/05/24 08:57:20;;;;;;;10.10;7.43;;;14.70;97.70;;;;;;5074995;28;20032;-75
2021/05/24 08:59:46;;;;;;;11.30;8.52;;;14.70;97.80;;;;;;5075304;28;20082;-75
2021/05/24 09:02:13;;;;;;;10.40;7.45;;;14.60;97.70;;;;;;5074503;28;20263;-75
2021/05/24 09:04:50;;;;;;;9.05;7.10;;;14.60;97.80;;;;;;5073684;28;20028;-75
2021/05/24 09:07:19;;;;;;;10.48;6.22;;;14.60;98.00;;;;;;5076323;28;20029;-75
2021/05/24 09:10:05;;;;;;;10.40;6.97;;;14.60;98.10;;;;;;5075149;28;20096;-75
2021/05/24 09:12:32;;;;;;;7.68;6.35;;;14.60;98.30;;;;;;5074191;28;20031;-75
2021/05/24 09:15:00;;;;;;;8.30;5.97;;;14.70;98.30;;;;;;5073532;28;20024;-74
2021/05/24 09:17:43;;;;;;;7.75;5.55;;;14.60;98.10;;;;;;5081321;28;20055;-74
2021/05/24 09:20:14;;;;;;;8.13;6.05;;;14.60;98.20;;;;;;5080909;28;20035;-74
2021/05/24 09:22:40;;;;;;;8.32;5.70;;;14.60;98.40;;;;;;5079548;28;20028;-74
2021/05/24 09:25:07;;;;;;;8.20;6.10;;;14.60;98.20;;;;;;5073682;28;20488;-75
2021/05/24 09:27:38;;;;;;;9.25;6.07;;;14.60;98.40;;;;;;5074811;28;20470;-74
2021/05/24 09:30:05;;;;;;;6.20;5.03;;;14.50;98.40;;;;;;5074441;28;20028;-74
2021/05/24 09:32:33;;;;;;;6.70;5.53;;;14.50;98.50;;;;;;5073085;28;20027;-75
2021/05/24 09:35:04;;;;;;;6.55;4.68;;;14.50;98.70;;;;;;5073477;28;20029;-75
2021/05/24 09:37:31;;;;;;;6.22;4.03;;;14.50;98.80;;;;;;5074175;28;20036;-75
2021/05/24 09:39:57;;;;;;;6.93;3.70;;;14.60;98.70;;;;;;5088369;28;20016;-75
2021/05/24 09:42:23;;;;;;;8.45;4.50;;;14.60;98.70;;;;;;5074492;28;20024;-74
2021/05/24 09:44:54;;;;;;;5.28;3.75;;;14.60;98.80;;;;;;5072462;28;20025;-74
2021/05/24 09:47:37;;;;;;;5.57;3.45;;;14.60;98.60;;;;;;5076941;28;20037;-74
2021/05/24 09:50:18;;;;;;;5.40;3.00;;;14.60;98.30;;;;;;5074167;28;20033;-74
2021/05/24 09:52:46;;;;;;;4.85;3.40;;;14.50;98.20;;;;;;5073765;28;20017;-74
2021/05/24 09:55:32;;;;;;;3.88;3.05;;;14.50;98.70;;;;;;5073765;28;20036;-74
2021/05/24 09:58:06;;;;;;;6.32;3.53;;;14.60;98.50;;;;;;5074200;28;20040;-74
2021/05/24 10:01:36;;;;;;;5.83;3.17;;;14.60;98.40;;;;;;5073505;28;20032;-74
2021/05/24 10:03:33;;;;;;;4.65;2.95;;;14.50;98.40;;;;;;5060562;28;20056;-75
2021/05/24 10:05:59;;;;;;;4.03;2.90;;;14.50;98.50;;;;;;5074056;28;20032;-76
2021/05/24 10:08:26;;;;;;;4.38;2.95;;;14.60;98.40;;;;;;5073897;28;20035;-77
2021/05/24 10:10:51;;;;;;;11.05;7.30;;;14.60;98.40;;;;;;5072493;28;20059;-74
2021/05/24 10:13:18;;;;;;;5.03;3.20;;;14.60;98.20;;;;;;5073598;28;20097;-75
2021/05/24 10:15:45;;;;;;;3.47;2.38;;;14.60;98.20;;;;;;5072289;28;20492;-76
2021/05/24 10:18:12;;;;;;;5.20;2.70;;;14.60;98.10;;;;;;5073702;28;20048;-76
2021/05/24 10:20:38;;;;;;;4.85;2.90;;;14.60;98.20;;;;;;5055567;28;20029;-76
2021/05/24 10:23:04;;;;;;;4.50;3.00;;;14.60;98.10;;;;;;5073288;28;20020;-74
2021/05/24 10:25:30;;;;;;;3.60;2.67;;;14.60;98.20;;;;;;5072450;28;20028;-74
2021/05/24 10:28:00;;;;;;;4.35;2.50;;;14.60;97.90;;;;;;5073100;28;20027;-76
2021/05/24 10:30:26;;;;;;;5.07;3.00;;;14.60;97.80;;;;;;5071865;28;20028;-76
2021/05/24 10:33:00;;;;;;;5.72;2.97;;;14.60;97.90;;;;;;5073610;28;20021;-75
2021/05/24 10:35:43;;;;;;;4.60;2.63;;;14.60;97.80;;;;;;5073762;28;20020;-74
2021/05/24 10:38:21;;;;;;;4.00;2.58;;;14.60;97.50;;;;;;5073163;28;20060;-75
2021/05/24 10:40:47;;;;;;;3.30;2.30;;;14.50;97.50;;;;;;5072861;28;20552;-75
2021/05/24 10:43:16;;;;;;;2.92;2.38;;;14.50;97.70;;;;;;5072836;28;20073;-75
2021/05/24 10:45:41;;;;;;;3.38;2.60;;;14.50;97.70;;;;;;5073113;28;20025;-75
2021/05/24 10:48:07;;;;;;;5.32;2.30;;;14.50;97.90;;;;;;5073714;28;20107;-76
2021/05/24 10:50:35;;;;;;;3.95;2.30;;;14.60;97.60;;;;;;5072074;28;20095;-76
2021/05/24 10:53:09;;;;;;;2.50;2.05;;;14.60;97.70;;;;;;5073066;28;20066;-75
2021/05/24 10:55:49;;;;;;;3.38;2.20;;;14.60;97.70;;;;;;5070578;28;20070;-75
2021/05/24 10:58:17;;;;;;;3.22;1.92;;;14.60;97.50;;;;;;5072862;28;20066;-76
2021/05/24 11:00:56;;;;;;;3.28;2.00;;;14.60;97.60;;;;;;5072590;28;20028;-75
2021/05/24 11:03:22;;;;;;;4.10;1.80;;;14.60;97.20;;;;;;5072016;28;20350;-75
2021/05/24 11:06:09;;;;;;;2.97;1.63;;;14.60;97.30;;;;;;5072366;28;20047;-76
2021/05/24 11:08:36;;;;;;;2.95;1.90;;;14.60;97.00;;;;;;5072880;28;20025;-75
2021/05/24 11:11:24;;;;;;;2.60;1.88;;;14.60;97.40;;;;;;5071409;28;20039;-75
2021/05/24 11:14:04;;;;;;;2.30;1.83;;;14.60;97.20;;;;;;5072737;28;20459;-76
2021/05/24 11:16:33;;;;;;;3.60;2.08;;;14.70;97.30;;;;;;5071877;28;20437;-75
2021/05/24 11:19:16;;;;;;;3.60;2.03;;;14.70;97.10;;;;;;5073170;28;20103;-75
2021/05/24 11:21:53;;;;;;;2.78;2.10;;;14.80;97.40;;;;;;5071593;28;20104;-75
2021/05/24 11:27:16;;;;;;;3.53;2.13;;;14.90;96.80;;;;;;5073300;28;20425;-75
2021/05/24 11:29:47;;;;;;;2.00;1.80;;;14.90;96.80;;;;;;5071670;28;20343;-75
2021/05/24 11:32:41;;;;;;;2.50;1.80;;;14.90;96.60;;;;;;5072970;28;20085;-75
2021/05/24 11:35:25;;;;;;;2.20;1.50;;;14.90;96.20;;;;;;5070897;28;20052;-75
2021/05/24 11:37:50;;;;;;;2.35;1.75;;;14.90;96.20;;;;;;5071728;28;20032;-75
2021/05/24 11:40:17;;;;;;;1.73;1.60;;;14.80;95.90;;;;;;5072238;28;20533;-75
2021/05/24 11:42:43;;;;;;;1.95;1.63;;;14.80;95.90;;;;;;5081654;28;20039;-75
2021/05/24 11:45:17;;;;;;;3.63;1.90;;;14.80;95.90;;;;;;5075408;28;20048;-74
2021/05/24 11:47:43;;;;;;;3.03;2.03;;;14.80;95.70;;;;;;5071098;28;20038;-74
2021/05/24 11:50:09;;;;;;;2.20;1.80;;;14.80;95.70;;;;;;5071967;28;20486;-74
2021/05/24 11:52:37;;;;;;;2.63;2.15;;;14.80;95.70;;;;;;5071961;28;20024;-75
2021/05/24 11:55:11;;;;;;;3.38;2.03;;;14.80;95.90;;;;;;5072334;28;20071;-75
2021/05/24 11:57:37;;;;;;;2.55;1.95;;;14.90;95.90;;;;;;5070752;28;20497;-74
2021/05/24 12:00:10;;;;;;;3.38;2.22;;;14.90;95.50;;;;;;5072411;28;20043;-74
2021/05/24 12:02:36;;;;;;;4.47;2.10;;;14.90;95.70;;;;;;5071643;28;20040;-76
2021/05/24 12:05:01;;;;;;;2.55;1.90;;;15.00;95.60;;;;;;5071650;28;20459;-75
2021/05/24 12:07:27;;;;;;;2.38;1.83;;;15.00;95.30;;;;;;5073301;28;20118;-76
2021/05/24 12:10:00;;;;;;;3.03;2.00;;;14.90;94.70;;;;;;5076290;28;20028;-75
2021/05/24 12:12:30;;;;;;;2.63;1.95;;;14.90;94.80;;;;;;5075759;28;20024;-77
2021/05/24 12:14:59;;;;;;;3.35;2.33;;;14.90;94.70;;;;;;5074960;28;20040;-75
2021/05/24 12:17:28;;;;;;;3.65;2.33;;;14.80;94.60;;;;;;5082276;28;20066;-75
2021/05/24 12:19:55;;;;;;;3.00;2.40;;;14.80;94.80;;;;;;5074852;28;20058;-75
2021/05/24 12:22:24;;;;;;;3.50;2.03;;;14.70;95.00;;;;;;5074937;28;20078;-76
2021/05/24 12:24:51;;;;;;;4.30;2.50;;;14.60;94.90;;;;;;5074792;28;20020;-75
2021/05/24 12:27:19;;;;;;;3.40;2.40;;;14.60;95.20;;;;;;5075538;28;20036;-75
2021/05/24 12:29:53;;;;;;;5.20;2.60;;;14.60;95.40;;;;;;5075575;28;20040;-75
2021/05/24 12:32:35;;;;;;;3.00;2.00;;;14.60;95.20;;;;;;5074712;28;20032;-75
2021/05/24 12:35:09;;;;;;;3.55;2.47;;;14.60;95.00;;;;;;5075436;28;20086;-75
2021/05/24 12:37:36;;;;;;;3.33;2.50;;;14.50;95.20;;;;;;5074418;28;20032;-74
2021/05/24 12:40:10;;;;;;;3.53;2.20;;;14.60;95.40;;;;;;5075540;28;20481;-74
2021/05/24 12:42:42;;;;;;;3.85;2.30;;;14.60;95.00;;;;;;5074046;28;20024;-74
2021/05/24 12:45:13;;;;;;;4.20;2.40;;;14.60;94.90;;;;;;5077660;28;20028;-74
2021/05/24 12:47:39;;;;;;;3.45;2.00;;;14.60;95.00;;;;;;5073981;28;20029;-74
2021/05/24 12:50:13;;;;;;;3.40;2.33;;;14.60;94.70;;;;;;5074771;28;20030;-74